createdAt,value
2018-10-09T00:00:13.224Z,17.20
2018-10-09T00:02:41.859Z,17.30
2018-10-09T00:05:08.381Z,17.50
2018-10-09T00:07:36.802Z,17.50
2018-10-09T00:10:03.842Z,17.40
2018-10-09T00:12:30.325Z,17.20
2018-10-09T00:14:57.589Z,17.20
2018-10-09T00:17:25.710Z,17.30
2018-10-09T00:19:52.472Z,17.30
2018-10-09T00:22:18.960Z,17.40
2018-10-09T00:24:45.847Z,17.10
2018-10-09T00:27:12.378Z,16.50
2018-10-09T00:29:40.992Z,16.50
2018-10-09T00:34:40.240Z,16.80
2018-10-09T00:37:06.755Z,16.90
2018-10-09T00:39:33.198Z,16.90
2018-10-09T00:42:00.192Z,17.00
2018-10-09T00:44:26.687Z,17.00
2018-10-09T00:46:53.205Z,17.00
2018-10-09T00:49:22.835Z,16.90
2018-10-09T00:51:49.422Z,16.80
2018-10-09T01:14:31.919Z,16.50
2018-10-09T01:16:58.352Z,16.50
2018-10-09T01:19:24.816Z,16.40
2018-10-09T01:21:51.476Z,16.30
2018-10-09T01:24:17.944Z,16.40
2018-10-09T01:26:44.391Z,16.40
2018-10-09T01:29:10.901Z,16.40
2018-10-09T01:31:37.552Z,16.30
2018-10-09T01:34:04.103Z,16.20
2018-10-09T01:36:30.758Z,16.20
2018-10-09T01:38:57.367Z,16.10
2018-10-09T01:41:25.176Z,16.10
2018-10-09T01:43:53.224Z,16.10
2018-10-09T01:46:19.885Z,16.00
2018-10-09T01:48:46.603Z,15.80
2018-10-09T01:51:14.185Z,15.50
2018-10-09T01:53:40.887Z,15.50
2018-10-09T01:56:08.623Z,15.50
2018-10-09T01:58:35.645Z,15.60
2018-10-09T02:01:02.962Z,15.60
2018-10-09T02:03:30.182Z,15.60
2018-10-09T02:05:56.705Z,15.60
2018-10-09T02:08:23.249Z,15.70
2018-10-09T02:10:50.888Z,15.70
2018-10-09T02:13:17.665Z,15.40
2018-10-09T02:15:44.956Z,15.40
2018-10-09T02:18:12.053Z,15.50
2018-10-09T02:20:40.513Z,15.60
2018-10-09T02:23:08.210Z,15.70
2018-10-09T02:25:35.840Z,15.40
2018-10-09T02:28:02.607Z,15.40
2018-10-09T02:30:29.120Z,15.40
2018-10-09T02:32:56.054Z,15.30
2018-10-09T02:35:22.613Z,15.20
2018-10-09T02:37:49.100Z,15.20
2018-10-09T02:40:15.571Z,15.20
2018-10-09T02:45:14.132Z,14.90
2018-10-09T02:47:40.769Z,14.90
2018-10-09T02:50:09.802Z,14.90
2018-10-09T02:52:38.334Z,15.00
2018-10-09T02:55:05.957Z,14.90
2018-10-09T02:57:32.599Z,14.70
2018-10-09T02:59:59.278Z,14.80
2018-10-09T03:02:25.779Z,14.70
2018-10-09T03:04:52.380Z,14.80
2018-10-09T03:07:19.251Z,14.70
2018-10-09T03:09:45.930Z,14.80
2018-10-09T03:12:12.414Z,14.80
2018-10-09T03:14:40.021Z,14.80
2018-10-09T03:17:06.730Z,14.70
2018-10-09T03:19:33.214Z,14.80
2018-10-09T03:21:59.708Z,14.80
2018-10-09T03:24:26.193Z,14.70
2018-10-09T03:26:52.639Z,14.70
2018-10-09T03:29:19.184Z,14.80
2018-10-09T03:31:45.684Z,14.60
2018-10-09T03:34:12.195Z,14.60
2018-10-09T03:36:38.851Z,14.70
2018-10-09T03:39:05.352Z,14.80
2018-10-09T03:41:31.940Z,14.70
2018-10-09T03:43:58.557Z,14.60
2018-10-09T03:46:25.192Z,14.60
2018-10-09T03:48:51.867Z,14.50
2018-10-09T03:51:18.596Z,14.30
2018-10-09T03:53:45.133Z,14.30
2018-10-09T03:56:11.654Z,14.40
2018-10-09T03:58:38.141Z,14.40
2018-10-09T04:01:04.579Z,14.30
2018-10-09T04:03:31.139Z,14.40
2018-10-09T04:05:57.652Z,14.50
2018-10-09T04:08:24.674Z,14.60
2018-10-09T04:10:51.182Z,14.70
2018-10-09T04:13:17.735Z,14.50
2018-10-09T04:15:44.803Z,14.60
2018-10-09T04:18:11.674Z,14.70
2018-10-09T04:20:38.189Z,14.70
2018-10-09T04:23:04.721Z,14.70
2018-10-09T04:25:31.179Z,14.70
2018-10-09T04:27:57.731Z,14.70
2018-10-09T04:30:24.283Z,14.80
2018-10-09T04:32:50.787Z,14.70
2018-10-09T04:35:17.401Z,14.70
2018-10-09T04:37:44.017Z,14.70
2018-10-09T04:40:11.214Z,14.70
2018-10-09T04:42:37.749Z,14.70
2018-10-09T04:45:04.296Z,14.60
2018-10-09T04:47:30.793Z,14.60
2018-10-09T04:49:57.274Z,14.80
2018-10-09T04:52:24.516Z,14.90
2018-10-09T04:54:51.082Z,14.90
2018-10-09T04:57:17.608Z,14.80
2018-10-09T04:59:44.250Z,14.60
2018-10-09T05:02:11.351Z,14.80
2018-10-09T05:04:37.833Z,14.90
2018-10-09T05:07:04.499Z,14.80
2018-10-09T05:09:30.980Z,14.60
2018-10-09T05:11:57.452Z,14.80
2018-10-09T05:14:23.946Z,14.90
2018-10-09T05:16:50.458Z,14.90
2018-10-09T05:19:16.966Z,14.70
2018-10-09T05:21:43.448Z,14.60
2018-10-09T05:24:09.925Z,14.50
2018-10-09T05:26:36.879Z,14.50
2018-10-09T05:29:03.351Z,14.70
2018-10-09T05:31:30.002Z,14.90
2018-10-09T05:33:56.577Z,15.00
2018-10-09T05:36:23.093Z,14.70
2018-10-09T05:38:49.931Z,14.70
2018-10-09T05:41:16.412Z,14.50
2018-10-09T05:43:42.879Z,14.40
2018-10-09T05:46:09.507Z,14.50
2018-10-09T05:48:36.766Z,14.90
2018-10-09T05:51:03.351Z,15.20
2018-10-09T05:53:29.817Z,15.20
2018-10-09T05:55:56.288Z,15.00
2018-10-09T05:58:22.777Z,14.90
2018-10-09T06:00:49.258Z,15.20
2018-10-09T06:03:15.822Z,15.40
2018-10-09T06:05:42.627Z,15.50
2018-10-09T06:08:09.289Z,15.50
2018-10-09T06:10:35.777Z,15.30
2018-10-09T06:13:02.245Z,15.10
2018-10-09T06:15:28.809Z,15.20
2018-10-09T06:17:55.478Z,15.40
2018-10-09T06:20:22.010Z,15.20
2018-10-09T06:22:48.549Z,15.30
2018-10-09T06:25:15.011Z,15.50
2018-10-09T06:27:42.266Z,15.60
2018-10-09T06:30:08.733Z,15.60
2018-10-09T06:32:35.240Z,15.60
2018-10-09T06:35:05.701Z,15.70
2018-10-09T06:37:32.270Z,15.60
2018-10-09T06:39:58.836Z,15.80
2018-10-09T06:44:57.774Z,15.80
2018-10-09T06:47:24.388Z,15.70
2018-10-09T06:49:51.061Z,15.60
2018-10-09T06:52:17.593Z,15.70
2018-10-09T06:54:44.504Z,16.00
2018-10-09T06:57:11.161Z,15.90
2018-10-09T06:59:37.665Z,15.80
2018-10-09T07:02:04.260Z,15.60
2018-10-09T07:04:30.870Z,15.60
2018-10-09T07:06:57.504Z,15.60
2018-10-09T07:09:23.994Z,15.90
2018-10-09T07:11:50.694Z,15.90
2018-10-09T07:14:18.033Z,15.70
2018-10-09T07:16:44.603Z,15.50
2018-10-09T07:19:11.168Z,15.70
2018-10-09T07:21:37.655Z,15.80
2018-10-09T07:24:04.118Z,16.20
2018-10-09T07:26:30.637Z,16.60
2018-10-09T07:28:57.331Z,16.80
2018-10-09T07:31:23.808Z,16.50
2018-10-09T07:33:50.340Z,16.50
2018-10-09T07:38:48.814Z,16.50
2018-10-09T07:41:15.312Z,16.70
2018-10-09T07:43:41.773Z,16.70
2018-10-09T07:46:08.406Z,17.20
2018-10-09T07:48:34.944Z,17.20
2018-10-09T07:51:01.403Z,17.10
2018-10-09T07:53:27.920Z,16.90
2018-10-09T07:55:55.191Z,16.30
2018-10-09T07:58:21.658Z,16.50
2018-10-09T08:03:20.655Z,16.70
2018-10-09T08:05:47.217Z,16.50
2018-10-09T08:08:13.797Z,17.00
2018-10-09T08:10:40.342Z,17.10
2018-10-09T08:13:07.165Z,17.50
2018-10-09T08:15:33.700Z,17.40
2018-10-09T08:18:00.195Z,17.60
2018-10-09T08:20:26.669Z,17.90
2018-10-09T08:22:53.213Z,17.70
2018-10-09T08:25:19.810Z,17.30
2018-10-09T08:27:46.293Z,17.10
2018-10-09T08:30:12.802Z,17.70
2018-10-09T08:35:13.615Z,17.80
2018-10-09T08:40:13.145Z,17.50
2018-10-09T08:42:39.721Z,17.70
2018-10-09T08:45:06.596Z,17.50
2018-10-09T08:47:33.104Z,18.00
2018-10-09T08:49:59.555Z,18.00
2018-10-09T08:52:26.001Z,17.80
2018-10-09T08:54:52.785Z,18.10
2018-10-09T08:57:19.463Z,18.30
2018-10-09T08:59:46.050Z,18.30
2018-10-09T09:02:12.550Z,18.60
2018-10-09T09:04:39.079Z,18.50
2018-10-09T09:07:05.560Z,18.20
2018-10-09T09:09:32.294Z,18.20
2018-10-09T09:11:58.921Z,18.60
2018-10-09T09:14:25.534Z,18.60
2018-10-09T09:16:52.994Z,19.10
2018-10-09T09:19:19.470Z,19.00
2018-10-09T09:21:46.010Z,19.50
2018-10-09T09:24:12.540Z,19.30
2018-10-09T09:26:39.630Z,19.60
2018-10-09T09:29:06.286Z,19.60
2018-10-09T09:31:32.835Z,19.90
2018-10-09T09:33:59.424Z,20.50
2018-10-09T09:36:25.931Z,20.30
2018-10-09T09:38:53.226Z,20.50
2018-10-09T09:41:19.871Z,20.10
2018-10-09T09:43:47.434Z,19.90
2018-10-09T09:46:14.002Z,20.50
2018-10-09T09:48:40.711Z,20.70
2018-10-09T09:51:07.289Z,20.90
2018-10-09T09:53:36.878Z,20.90
2018-10-09T09:56:03.387Z,21.10
2018-10-09T09:58:29.985Z,21.30
2018-10-09T10:00:58.931Z,21.10
2018-10-09T10:03:25.457Z,21.40
2018-10-09T10:05:52.078Z,21.20
2018-10-09T10:08:19.675Z,21.00
2018-10-09T10:10:46.281Z,21.40
2018-10-09T10:13:12.732Z,21.60
2018-10-09T10:15:39.421Z,21.60
2018-10-09T10:18:06.132Z,21.60
2018-10-09T10:20:32.626Z,21.80
2018-10-09T10:22:59.195Z,21.70
2018-10-09T10:25:25.856Z,21.90
2018-10-09T10:27:52.485Z,22.20
2018-10-09T10:30:19.200Z,22.30
2018-10-09T10:32:45.675Z,22.20
2018-10-09T10:35:12.202Z,22.20
2018-10-09T10:37:39.286Z,22.10
2018-10-09T10:40:05.745Z,22.00
2018-10-09T10:42:32.182Z,21.90
2018-10-09T10:44:58.829Z,22.20
2018-10-09T10:47:25.357Z,22.00
2018-10-09T10:49:51.850Z,22.30
2018-10-09T10:52:18.386Z,22.50
2018-10-09T10:54:45.047Z,22.50
2018-10-09T10:57:12.302Z,22.30
2018-10-09T11:02:10.949Z,22.90
2018-10-09T11:04:37.455Z,22.80
2018-10-09T11:07:04.089Z,23.00
2018-10-09T11:09:30.636Z,23.20
2018-10-09T11:11:57.161Z,22.90
2018-10-09T11:14:27.914Z,23.00
2018-10-09T11:16:54.588Z,23.00
2018-10-09T11:19:21.418Z,22.80
2018-10-09T11:21:47.958Z,22.50
2018-10-09T11:24:21.279Z,22.70
2018-10-09T11:26:50.033Z,22.80
2018-10-09T11:29:16.743Z,22.80
2018-10-09T11:31:43.263Z,22.80
2018-10-09T11:34:09.801Z,22.70
2018-10-09T11:36:36.333Z,22.90
2018-10-09T11:39:02.807Z,23.10
2018-10-09T11:41:29.250Z,23.50
2018-10-09T11:43:55.920Z,23.80
2018-10-09T11:46:22.421Z,23.90
2018-10-09T11:48:48.969Z,23.80
2018-10-09T11:51:15.434Z,23.60
2018-10-09T11:53:41.948Z,23.40
2018-10-09T11:56:08.401Z,23.40
2018-10-09T11:58:34.993Z,23.60
2018-10-09T12:01:01.613Z,24.00
2018-10-09T12:03:29.212Z,24.20
2018-10-09T12:05:55.843Z,24.20
2018-10-09T12:08:22.420Z,24.30
2018-10-09T12:10:48.895Z,24.10
2018-10-09T12:13:15.367Z,24.00
2018-10-09T12:15:41.903Z,24.00
2018-10-09T12:18:08.551Z,23.80
2018-10-09T12:20:35.203Z,23.90
2018-10-09T12:23:01.722Z,23.90
2018-10-09T12:25:29.275Z,24.00
2018-10-09T12:27:55.857Z,24.10
2018-10-09T12:30:22.331Z,24.50
2018-10-09T12:32:48.829Z,24.30
2018-10-09T12:35:18.288Z,24.40
2018-10-09T12:37:44.853Z,24.80
2018-10-09T12:40:11.369Z,24.30
2018-10-09T12:42:37.876Z,24.40
2018-10-09T12:45:08.214Z,24.50
2018-10-09T12:47:34.664Z,24.80
2018-10-09T12:50:01.206Z,24.00
2018-10-09T12:52:27.890Z,24.00
2018-10-09T12:54:54.844Z,24.40
2018-10-09T12:57:21.401Z,24.30
2018-10-09T12:59:47.905Z,24.50
2018-10-09T13:02:14.444Z,24.40
2018-10-09T13:04:40.929Z,24.70
2018-10-09T13:07:07.430Z,24.60
2018-10-09T13:09:34.063Z,24.00
2018-10-09T13:12:00.728Z,24.20
2018-10-09T13:14:27.265Z,24.20
2018-10-09T13:16:53.769Z,24.20
2018-10-09T13:19:20.305Z,24.80
2018-10-09T13:21:47.027Z,24.40
2018-10-09T13:24:13.428Z,24.40
2018-10-09T13:26:39.884Z,24.10
2018-10-09T13:29:08.157Z,24.50
2018-10-09T13:31:34.693Z,24.50
2018-10-09T13:34:02.306Z,24.20
2018-10-09T13:36:29.222Z,24.00
2018-10-09T13:38:55.692Z,24.10
2018-10-09T13:41:22.131Z,23.90
2018-10-09T13:43:48.632Z,24.20
2018-10-09T13:46:15.225Z,24.70
2018-10-09T13:48:41.679Z,25.00
2018-10-09T13:51:08.210Z,25.00
2018-10-09T13:53:34.680Z,24.20
2018-10-09T13:56:01.216Z,24.10
2018-10-09T13:58:27.697Z,24.40
2018-10-09T14:00:54.153Z,24.80
2018-10-09T14:03:20.655Z,24.70
2018-10-09T14:08:18.691Z,24.40
2018-10-09T14:10:46.151Z,24.60
2018-10-09T14:13:12.620Z,24.60
2018-10-09T14:15:39.094Z,24.50
2018-10-09T14:18:05.622Z,24.60
2018-10-09T14:20:35.994Z,24.40
2018-10-09T14:23:02.477Z,24.40
2018-10-09T14:25:29.114Z,24.40
2018-10-09T14:27:55.602Z,24.60
2018-10-09T14:30:23.733Z,24.60
2018-10-09T14:32:50.192Z,24.60
2018-10-09T14:35:16.643Z,24.80
2018-10-09T14:40:15.018Z,23.80
2018-10-09T14:42:41.485Z,23.80
2018-10-09T14:45:08.035Z,23.80
2018-10-09T14:47:34.635Z,23.60
2018-10-09T14:50:01.099Z,23.80
2018-10-09T14:52:27.586Z,23.90
2018-10-09T14:54:54.090Z,23.50
2018-10-09T14:57:20.628Z,23.70
2018-10-09T14:59:47.130Z,23.80
2018-10-09T15:02:13.571Z,24.00
2018-10-09T15:04:40.023Z,24.00
2018-10-09T15:07:06.542Z,23.90
2018-10-09T15:09:33.118Z,23.70
2018-10-09T15:12:00.140Z,23.50
2018-10-09T15:14:26.732Z,23.30
2018-10-09T15:16:53.267Z,23.40
2018-10-09T15:19:19.902Z,23.70
2018-10-09T15:21:46.338Z,23.70
2018-10-09T15:24:12.858Z,23.60
2018-10-09T15:26:40.321Z,23.10
2018-10-09T15:29:06.822Z,23.10
2018-10-09T15:31:33.484Z,23.20
2018-10-09T15:34:00.043Z,23.30
2018-10-09T15:36:26.488Z,23.50
2018-10-09T15:38:53.231Z,23.50
2018-10-09T15:41:19.840Z,23.50
2018-10-09T15:43:46.393Z,23.40
2018-10-09T15:46:12.886Z,23.20
2018-10-09T15:48:39.479Z,23.10
2018-10-09T15:51:05.981Z,22.90
2018-10-09T15:53:32.488Z,22.90
2018-10-09T15:55:58.992Z,22.90
2018-10-09T15:58:25.645Z,22.80
2018-10-09T16:00:53.280Z,22.90
2018-10-09T16:03:19.760Z,22.90
2018-10-09T16:05:46.213Z,22.90
2018-10-09T16:08:12.729Z,22.90
2018-10-09T16:10:39.199Z,22.60
2018-10-09T16:13:05.676Z,22.60
2018-10-09T16:15:32.316Z,22.50
2018-10-09T16:17:58.766Z,22.60
2018-10-09T16:20:25.325Z,22.60
2018-10-09T16:22:51.836Z,22.40
2018-10-09T16:25:18.318Z,21.80
2018-10-09T16:27:44.813Z,22.00
2018-10-09T16:30:12.153Z,22.00
2018-10-09T16:32:38.808Z,22.00
2018-10-09T16:35:05.329Z,21.90
2018-10-09T16:37:33.370Z,21.90
2018-10-09T16:39:59.878Z,21.70
2018-10-09T16:42:26.309Z,21.70
2018-10-09T16:44:52.823Z,21.50
2018-10-09T16:47:22.661Z,21.10
2018-10-09T16:49:49.478Z,21.00
2018-10-09T16:52:15.995Z,20.90
2018-10-09T16:54:42.452Z,20.90
2018-10-09T16:57:09.092Z,20.80
2018-10-09T16:59:35.672Z,20.80
2018-10-09T17:02:02.124Z,20.80
2018-10-09T17:04:28.692Z,20.80
2018-10-09T17:06:55.184Z,20.60
2018-10-09T17:09:21.982Z,20.30
2018-10-09T17:11:48.437Z,20.40
2018-10-09T17:14:15.045Z,20.40
2018-10-09T17:16:41.508Z,20.30
2018-10-09T17:19:07.947Z,20.20
2018-10-09T17:21:34.462Z,19.70
2018-10-09T17:24:02.100Z,19.50
2018-10-09T17:26:28.602Z,19.70
2018-10-09T17:28:55.150Z,19.80
2018-10-09T17:31:21.727Z,19.80
2018-10-09T17:33:48.248Z,19.70
2018-10-09T17:36:14.797Z,19.70
2018-10-09T17:38:41.357Z,19.60
2018-10-09T17:41:07.852Z,19.70
2018-10-09T17:43:34.655Z,19.50
2018-10-09T17:46:01.155Z,19.50
2018-10-09T17:48:27.682Z,19.50
2018-10-09T17:50:54.989Z,19.40
2018-10-09T17:53:21.490Z,18.90
2018-10-09T17:55:47.973Z,18.90
2018-10-09T17:58:15.853Z,18.90
2018-10-09T18:00:42.317Z,18.90
2018-10-09T18:03:08.875Z,18.90
2018-10-09T18:05:35.478Z,18.90
2018-10-09T18:10:39.696Z,18.40
2018-10-09T18:13:06.173Z,18.20
2018-10-09T18:15:32.647Z,18.30
2018-10-09T18:20:32.925Z,18.60
2018-10-09T18:22:59.520Z,18.50
2018-10-09T18:25:26.100Z,18.40
2018-10-09T18:27:52.571Z,18.50
2018-10-09T18:30:19.065Z,18.50
2018-10-09T18:32:45.654Z,18.40
2018-10-09T18:35:12.156Z,18.40
2018-10-09T18:37:38.616Z,18.40
2018-10-09T18:40:05.070Z,17.80
2018-10-09T18:42:31.607Z,17.80
2018-10-09T18:44:58.289Z,17.80
2018-10-09T18:47:24.774Z,17.70
2018-10-09T18:49:51.234Z,17.90
2018-10-09T18:52:18.695Z,17.90
2018-10-09T18:54:45.155Z,17.90
2018-10-09T18:57:11.629Z,17.90
2018-10-09T18:59:38.149Z,17.90
2018-10-09T19:02:04.611Z,17.70
2018-10-09T19:04:31.117Z,17.70
2018-10-09T19:06:57.800Z,17.50
2018-10-09T19:09:24.441Z,17.70
2018-10-09T19:11:50.970Z,17.50
2018-10-09T19:14:17.465Z,17.60
2018-10-09T19:16:44.008Z,17.60
2018-10-09T19:19:10.598Z,17.40
2018-10-09T19:21:37.199Z,17.30
2018-10-09T19:24:03.652Z,17.40
2018-10-09T19:26:30.135Z,17.40
2018-10-09T19:28:56.679Z,17.00
2018-10-09T19:31:23.176Z,16.80
2018-10-09T19:33:50.359Z,17.10
2018-10-09T19:36:16.947Z,17.20
2018-10-09T19:38:46.489Z,17.10
2018-10-09T19:41:13.029Z,16.50
2018-10-09T19:43:39.559Z,16.40
2018-10-09T19:46:06.045Z,16.70
2018-10-09T19:48:32.540Z,16.90
2018-10-09T19:50:59.210Z,17.00
2018-10-09T19:53:25.874Z,16.90
2018-10-09T19:55:53.417Z,17.00
2018-10-09T19:58:20.800Z,16.80
2018-10-09T20:00:47.603Z,16.40
2018-10-09T20:03:14.316Z,16.30
2018-10-09T20:05:41.381Z,16.20
2018-10-09T20:08:07.863Z,16.40
2018-10-09T20:10:34.332Z,16.60
2018-10-09T20:13:01.111Z,16.60
2018-10-09T20:15:28.725Z,16.60
2018-10-09T20:17:55.219Z,16.50
2018-10-09T20:22:54.069Z,16.40
2018-10-09T20:25:20.649Z,16.30
2018-10-09T20:27:47.143Z,16.50
2018-10-09T20:30:13.636Z,16.40
2018-10-09T20:32:40.153Z,16.50
2018-10-09T20:35:06.643Z,16.50
2018-10-09T20:37:33.355Z,16.50
2018-10-09T20:39:59.833Z,16.50
2018-10-09T20:42:26.769Z,16.60
2018-10-09T20:44:53.322Z,16.40
2018-10-09T20:47:19.950Z,16.30
2018-10-09T20:49:46.504Z,16.30
2018-10-09T20:54:45.127Z,16.10
2018-10-09T20:57:11.580Z,16.00
2018-10-09T20:59:39.747Z,15.90
2018-10-09T21:02:07.900Z,16.00
2018-10-09T21:04:34.423Z,15.80
2018-10-09T21:07:00.852Z,15.90
2018-10-09T21:09:27.513Z,16.20
2018-10-09T21:12:01.341Z,16.30
2018-10-09T21:14:27.831Z,16.20
2018-10-09T21:16:54.338Z,15.90
2018-10-09T21:19:21.038Z,15.80
2018-10-09T21:21:47.550Z,15.70
2018-10-09T21:24:14.028Z,15.60
2018-10-09T21:26:41.944Z,15.80
2018-10-09T21:29:08.436Z,15.80
2018-10-09T21:31:34.957Z,15.80
2018-10-09T21:34:01.467Z,15.10
2018-10-09T21:36:27.976Z,15.00
2018-10-09T21:38:54.652Z,15.40
2018-10-09T21:41:21.150Z,15.50
2018-10-09T21:43:47.717Z,15.50
2018-10-09T21:46:14.356Z,15.50
2018-10-09T21:48:41.188Z,15.30
2018-10-09T21:51:07.701Z,15.40
2018-10-09T21:53:34.388Z,15.30
2018-10-09T21:56:01.154Z,15.50
2018-10-09T21:58:27.645Z,15.50
2018-10-09T22:00:54.286Z,15.60
2018-10-09T22:03:20.782Z,15.70
2018-10-09T22:05:47.276Z,15.60
2018-10-09T22:08:13.807Z,15.70
2018-10-09T22:10:40.406Z,15.70
2018-10-09T22:13:07.020Z,15.40
2018-10-09T22:15:33.480Z,15.40
2018-10-09T22:18:00.255Z,15.40
2018-10-09T22:20:26.756Z,15.30
2018-10-09T22:22:53.412Z,15.40
2018-10-09T22:25:19.993Z,15.20
2018-10-09T22:27:46.494Z,14.90
2018-10-09T22:30:15.774Z,14.60
2018-10-09T22:32:42.229Z,15.00
2018-10-09T22:35:09.083Z,15.20
2018-10-09T22:37:35.556Z,15.20
2018-10-09T22:40:02.026Z,15.20
2018-10-09T22:42:28.533Z,15.10
2018-10-09T22:44:55.951Z,15.10
2018-10-09T22:47:22.473Z,14.70
2018-10-09T22:49:48.984Z,14.70
2018-10-09T22:52:15.504Z,14.70
2018-10-09T22:54:42.029Z,14.80
2018-10-09T22:57:08.504Z,14.80
2018-10-09T22:59:35.032Z,14.80
2018-10-09T23:02:01.763Z,14.90
2018-10-09T23:04:28.289Z,14.90
2018-10-09T23:06:54.813Z,14.90
2018-10-09T23:09:21.304Z,14.70
2018-10-09T23:11:47.803Z,14.50
2018-10-09T23:14:14.458Z,14.50
2018-10-09T23:16:40.940Z,14.30
2018-10-09T23:19:07.467Z,14.50
2018-10-09T23:21:34.032Z,14.70
2018-10-09T23:24:03.317Z,14.60
2018-10-09T23:26:31.124Z,14.60
2018-10-09T23:29:00.177Z,14.80
2018-10-09T23:31:27.433Z,14.80
2018-10-09T23:33:55.585Z,14.90
2018-10-09T23:36:22.637Z,14.80
2018-10-09T23:38:49.188Z,14.60
2018-10-09T23:41:17.100Z,14.40
2018-10-09T23:43:45.589Z,14.60
2018-10-09T23:46:13.054Z,14.60
2018-10-09T23:51:12.022Z,14.60
2018-10-09T23:53:39.484Z,14.50
2018-10-09T23:56:07.125Z,14.30
2018-10-09T23:58:36.295Z,14.50
